Time;durP1;ratioP1;P1;durP2;ratioP2;P2;SDS_P1;SDS_P2;PMS_P1;PMS_P2;Temp;Humidity;BMP_temperature;BMP_pressure;BME280_temperature;BME280_humidity;BME280_pressure;Samples;Min_cycle;Max_cycle;Signal;HPM_P1;HPM_P2
2022/11/22 00:00:59;;;;;;;;;;;;;;;9.35;62.01;99107.38;5034311;28;19917;-88
2022/11/22 00:03:24;;;;;;;;;;;;;;;9.37;62.24;99112.59;5033807;28;19928;-87
2022/11/22 00:05:49;;;;;;;;;;;;;;;9.31;61.58;99135.53;5034630;28;19917;-87
2022/11/22 00:08:14;;;;;;;;;;;;;;;9.28;61.79;99132.94;5033717;28;20398;-87
2022/11/22 00:10:40;;;;;;;;;;;;;;;9.25;62.66;99134.75;5034011;28;19967;-88
2022/11/22 00:13:05;;;;;;;;;;;;;;;9.28;61.39;99135.56;5034076;28;19971;-87
2022/11/22 00:15:30;;;;;;;;;;;;;;;9.28;62.43;99138.22;5033781;28;20020;-88
2022/11/22 00:17:56;;;;;;;;;;;;;;;9.09;61.77;99131.53;5033280;28;19921;-87
2022/11/22 00:20:21;;;;;;;;;;;;;;;9.12;62.09;99128.84;5034196;28;19917;-87
2022/11/22 00:22:47;;;;;;;;;;;;;;;9.12;62.25;99128.84;5033411;28;19929;-87
2022/11/22 00:25:13;;;;;;;;;;;;;;;9.05;61.99;99127.22;5033342;28;19948;-87
2022/11/22 00:27:38;;;;;;;;;;;;;;;8.97;62.64;99119.47;5033442;28;19944;-87
2022/11/22 00:30:04;;;;;;;;;;;;;;;9.02;63.03;99124.63;5033573;28;19917;-86
2022/11/22 00:32:29;;;;;;;;;;;;;;;8.68;62.87;99125.22;5033400;28;19995;-86
2022/11/22 00:34:54;;;;;;;;;;;;;;;8.59;63.67;99127.09;5033503;28;20089;-85
2022/11/22 00:37:20;;;;;;;;;;;;;;;8.50;63.46;99136.91;5032743;28;19921;-86
2022/11/22 00:39:45;;;;;;;;;;;;;;;8.62;63.21;99123.56;5033397;28;19924;-86
2022/11/22 00:42:10;;;;;;;;;;;;;;;8.71;63.39;99120.78;5033369;28;19924;-85
2022/11/22 00:44:35;;;;;;;;;;;;;;;8.64;63.58;99129.66;5032960;28;19925;-85
2022/11/22 00:47:01;;;;;;;;;;;;;;;8.65;63.88;99131.41;5033080;28;20341;-85
2022/11/22 00:49:26;;;;;;;;;;;;;;;8.67;63.33;99128.75;5033017;28;19932;-87
2022/11/22 00:51:51;;;;;;;;;;;;;;;8.56;63.42;99129.78;5032591;28;19925;-86
2022/11/22 00:54:16;;;;;;;;;;;;;;;8.46;63.71;99143.09;5033229;28;19917;-86
2022/11/22 00:56:42;;;;;;;;;;;;;;;8.39;64.00;99137.03;5033798;28;19967;-85
2022/11/22 00:59:07;;;;;;;;;;;;;;;8.31;64.35;99150.28;5033054;28;19921;-86
2022/11/22 01:01:32;;;;;;;;;;;;;;;8.15;64.07;99146.13;5032564;28;19921;-87
2022/11/22 01:03:58;;;;;;;;;;;;;;;8.17;63.86;99154.84;5033177;28;19917;-85
2022/11/22 01:06:23;;;;;;;;;;;;;;;8.22;64.06;99161.78;5032933;28;20003;-85
2022/11/22 01:08:48;;;;;;;;;;;;;;;8.15;64.12;99148.75;5031015;28;19918;-85
2022/11/22 01:11:15;;;;;;;;;;;;;;;8.10;64.45;99143.56;5033055;28;19917;-85
2022/11/22 01:13:40;;;;;;;;;;;;;;;7.82;64.54;99143.06;5032507;28;19921;-86
2022/11/22 01:16:07;;;;;;;;;;;;;;;7.94;64.51;99148.16;5032480;28;19924;-86
2022/11/22 01:18:32;;;;;;;;;;;;;;;8.02;63.78;99161.19;5032606;28;19964;-86
2022/11/22 01:20:57;;;;;;;;;;;;;;;8.04;64.08;99165.53;5032736;28;19963;-85
2022/11/22 01:23:23;;;;;;;;;;;;;;;8.01;64.02;99164.72;5032109;28;20398;-87
2022/11/22 01:25:48;;;;;;;;;;;;;;;7.87;64.35;99165.75;5032919;28;20353;-85
2022/11/22 01:28:14;;;;;;;;;;;;;;;7.96;64.56;99170.03;5032449;28;19964;-85
2022/11/22 01:30:40;;;;;;;;;;;;;;;8.03;63.86;99165.53;5032210;28;20444;-85
2022/11/22 01:33:05;;;;;;;;;;;;;;;8.15;63.65;99167.16;5032205;28;20011;-85
2022/11/22 01:35:30;;;;;;;;;;;;;;;8.08;63.67;99169.00;5032106;28;20074;-85
2022/11/22 01:37:56;;;;;;;;;;;;;;;8.03;63.62;99163.81;5032218;28;19921;-85
2022/11/22 01:40:21;;;;;;;;;;;;;;;7.80;64.49;99164.09;5032357;28;19928;-85
2022/11/22 01:42:56;;;;;;;;;;;;;;;7.89;64.76;99158.75;5031786;28;19925;-84
2022/11/22 01:45:31;;;;;;;;;;;;;;;7.86;64.98;99161.41;5031122;28;19994;-85
2022/11/22 01:47:56;;;;;;;;;;;;;;;7.81;64.61;99157.94;5032298;28;19968;-85
2022/11/22 01:50:21;;;;;;;;;;;;;;;7.80;64.59;99165.84;5031436;28;20018;-85
2022/11/22 01:52:47;;;;;;;;;;;;;;;7.84;65.06;99170.19;5031800;28;19928;-85
2022/11/22 01:55:13;;;;;;;;;;;;;;;8.02;64.32;99171.72;5027525;28;19921;-85
2022/11/22 01:57:39;;;;;;;;;;;;;;;7.87;64.34;99167.50;5011972;28;19922;-85
2022/11/22 02:00:10;;;;;;;;;;;;;;;7.78;64.98;99172.88;5027487;28;19969;-85
2022/11/22 02:02:36;;;;;;;;;;;;;;;8.07;64.06;99183.88;5012515;28;19917;-84
2022/11/22 02:05:03;;;;;;;;;;;;;;;7.80;64.49;99171.97;5032093;28;19923;-84
2022/11/22 02:07:32;;;;;;;;;;;;;;;8.01;64.12;99170.81;5031299;28;19917;-85
2022/11/22 02:09:57;;;;;;;;;;;;;;;7.81;64.40;99178.09;5031566;28;20358;-84
2022/11/22 02:12:26;;;;;;;;;;;;;;;7.90;63.86;99185.84;5031674;28;20042;-85
2022/11/22 02:14:52;;;;;;;;;;;;;;;7.78;64.40;99192.13;5031536;28;19921;-85
2022/11/22 02:17:17;;;;;;;;;;;;;;;7.89;64.01;99194.59;5032004;28;19928;-84
2022/11/22 02:19:43;;;;;;;;;;;;;;;7.86;64.75;99190.28;5031259;28;19921;-84
2022/11/22 02:22:20;;;;;;;;;;;;;;;7.95;64.82;99188.44;5031313;28;19994;-85
2022/11/22 02:24:52;;;;;;;;;;;;;;;7.82;64.37;99191.19;5030930;28;20028;-84
2022/11/22 02:27:17;;;;;;;;;;;;;;;7.73;65.74;99191.31;5031496;28;19917;-85
2022/11/22 02:29:43;;;;;;;;;;;;;;;7.86;65.07;99189.41;5031570;28;19998;-85
2022/11/22 02:32:08;;;;;;;;;;;;;;;7.89;64.92;99192.88;5031884;28;19999;-85
2022/11/22 02:34:44;;;;;;;;;;;;;;;7.64;65.49;99191.41;5031088;28;19925;-87
2022/11/22 02:37:10;;;;;;;;;;;;;;;7.64;65.12;99194.91;5031494;28;19924;-86
2022/11/22 02:39:36;;;;;;;;;;;;;;;7.66;65.23;99195.78;5031493;28;19983;-86
2022/11/22 02:42:01;;;;;;;;;;;;;;;7.71;65.08;99191.31;5031002;28;20021;-86
2022/11/22 02:44:26;;;;;;;;;;;;;;;7.54;65.42;99190.66;5031320;28;19921;-86
2022/11/22 02:46:53;;;;;;;;;;;;;;;7.40;65.99;99184.66;5030077;28;19986;-86
2022/11/22 02:49:19;;;;;;;;;;;;;;;7.29;65.66;99185.66;5046539;28;20313;-87
2022/11/22 02:51:44;;;;;;;;;;;;;;;7.31;65.78;99194.38;5026639;28;20284;-86
2022/11/22 02:54:10;;;;;;;;;;;;;;;7.12;66.57;99195.41;5023849;28;20004;-87
2022/11/22 02:56:35;;;;;;;;;;;;;;;7.09;66.72;99193.72;5030982;28;19921;-86
2022/11/22 02:59:00;;;;;;;;;;;;;;;7.08;66.88;99198.97;5031330;28;19982;-87
2022/11/22 03:01:25;;;;;;;;;;;;;;;7.00;67.39;99199.03;5031406;28;19913;-87
2022/11/22 03:03:51;;;;;;;;;;;;;;;7.07;67.40;99198.06;5030561;28;19932;-86
2022/11/22 03:06:16;;;;;;;;;;;;;;;7.11;66.42;99206.81;5031159;28;19921;-86
2022/11/22 03:08:43;;;;;;;;;;;;;;;7.05;66.34;99209.47;5031115;28;19940;-86
2022/11/22 03:11:08;;;;;;;;;;;;;;;7.09;66.85;99214.69;5031154;28;19921;-86
2022/11/22 03:13:33;;;;;;;;;;;;;;;7.34;66.25;99212.72;5030893;28;19924;-86
2022/11/22 03:15:59;;;;;;;;;;;;;;;7.40;65.59;99217.03;5046389;28;19924;-86
2022/11/22 03:18:24;;;;;;;;;;;;;;;7.36;65.73;99215.31;5031416;28;19917;-86
2022/11/22 03:20:49;;;;;;;;;;;;;;;7.17;66.44;99222.50;5030786;28;20361;-86
2022/11/22 03:23:14;;;;;;;;;;;;;;;7.49;65.68;99219.56;5030571;28;19921;-86
2022/11/22 03:25:40;;;;;;;;;;;;;;;7.50;65.43;99221.28;5031026;28;20440;-86
2022/11/22 03:28:05;;;;;;;;;;;;;;;7.43;66.16;99222.25;5031327;28;19927;-87
2022/11/22 03:30:31;;;;;;;;;;;;;;;7.66;64.93;99226.38;5030952;28;20310;-87
2022/11/22 03:32:56;;;;;;;;;;;;;;;7.92;63.84;99220.84;5034358;28;19971;-87
2022/11/22 03:35:21;;;;;;;;;;;;;;;8.11;63.51;99224.13;5034659;28;19921;-86
2022/11/22 03:37:47;;;;;;;;;;;;;;;7.88;64.30;99232.28;5033990;28;20015;-87
2022/11/22 03:40:12;;;;;;;;;;;;;;;7.95;63.87;99225.19;5034172;28;19921;-86
2022/11/22 03:42:37;;;;;;;;;;;;;;;8.03;64.25;99208.47;5034592;28;20373;-86
2022/11/22 03:45:03;;;;;;;;;;;;;;;7.90;63.85;99222.63;5034163;28;19921;-87
2022/11/22 03:47:28;;;;;;;;;;;;;;;7.64;65.10;99223.78;5034855;28;19952;-87
2022/11/22 03:49:53;;;;;;;;;;;;;;;7.63;65.13;99224.69;5034189;28;20378;-86
2022/11/22 03:52:19;;;;;;;;;;;;;;;7.83;65.01;99221.84;5033912;28;19974;-86
2022/11/22 03:54:44;;;;;;;;;;;;;;;7.64;65.47;99218.53;5034358;28;19917;-86
2022/11/22 03:57:09;;;;;;;;;;;;;;;7.42;65.70;99220.50;5034295;28;19918;-86
2022/11/22 03:59:35;;;;;;;;;;;;;;;7.43;66.03;99238.00;5034097;28;19917;-86
2022/11/22 04:02:00;;;;;;;;;;;;;;;7.37;66.26;99237.16;5049282;28;19921;-85
2022/11/22 04:04:25;;;;;;;;;;;;;;;7.57;65.78;99226.47;5048679;28;20032;-86
2022/11/22 04:06:50;;;;;;;;;;;;;;;7.46;66.07;99231.84;5033815;28;19929;-86
2022/11/22 04:09:16;;;;;;;;;;;;;;;7.40;66.05;99238.03;5033814;28;19921;-86
2022/11/22 04:11:41;;;;;;;;;;;;;;;7.14;67.26;99243.50;5034112;28;19928;-86
2022/11/22 04:16:53;;;;;;;;;;;;;;;7.30;66.40;99242.47;5034094;28;20084;-85
2022/11/22 04:19:18;;;;;;;;;;;;;;;7.21;67.18;99241.69;5032264;28;19921;-87
2022/11/22 04:21:43;;;;;;;;;;;;;;;7.14;67.27;99244.38;5032548;28;19917;-89
2022/11/22 04:26:56;;;;;;;;;;;;;;;6.98;68.03;99230.53;5008748;28;19948;-87
2022/11/22 04:29:21;;;;;;;;;;;;;;;7.09;68.02;99240.03;5029883;28;20144;-89
2022/11/22 04:34:32;;;;;;;;;;;;;;;7.27;66.87;99253.00;5033281;28;19928;-85
2022/11/22 04:36:58;;;;;;;;;;;;;;;7.55;66.06;99251.88;5047013;28;19921;-87
2022/11/22 04:39:23;;;;;;;;;;;;;;;7.63;65.66;99257.91;5032835;28;19917;-87
2022/11/22 04:44:39;;;;;;;;;;;;;;;7.67;65.63;99265.75;5032165;28;20290;-83
2022/11/22 04:44:39;;;;;;;;;;;;;;;7.78;65.53;99272.66;5032689;28;20382;-84
2022/11/22 04:47:05;;;;;;;;;;;;;;;7.70;66.03;99270.09;5031862;28;19928;-87
2022/11/22 04:49:30;;;;;;;;;;;;;;;7.67;65.61;99275.38;5047928;28;19917;-90
2022/11/22 04:54:39;;;;;;;;;;;;;;;6.89;67.72;99269.91;5032904;28;19967;-91
2022/11/22 04:57:04;;;;;;;;;;;;;;;6.53;69.47;99271.00;5032587;28;20357;-91
2022/11/22 04:59:30;;;;;;;;;;;;;;;6.69;68.97;99279.63;5032175;28;20456;-93
2022/11/22 05:01:55;;;;;;;;;;;;;;;6.80;69.22;99276.09;5033331;28;19928;-90
2022/11/22 05:04:20;;;;;;;;;;;;;;;6.80;69.10;99286.56;5032623;28;19968;-90
2022/11/22 05:06:46;;;;;;;;;;;;;;;6.79;69.02;99290.06;5032645;28;19924;-93
2022/11/22 05:09:11;;;;;;;;;;;;;;;6.77;69.17;99289.22;5030994;28;19929;-91
2022/11/22 05:11:36;;;;;;;;;;;;;;;6.68;69.41;99296.25;5034624;28;19925;-89
2022/11/22 05:14:02;;;;;;;;;;;;;;;6.98;68.59;99298.69;5028023;28;19924;-92
2022/11/22 05:16:28;;;;;;;;;;;;;;;7.04;68.03;99312.63;5033768;28;19918;-93
2022/11/22 05:18:59;;;;;;;;;;;;;;;7.05;68.34;99319.63;5033492;28;19928;-93
2022/11/22 05:21:26;;;;;;;;;;;;;;;7.34;67.52;99328.16;5034421;28;19950;-93
2022/11/22 05:23:54;;;;;;;;;;;;;;;7.50;66.77;99315.78;5030419;28;19928;-91
2022/11/22 05:26:25;;;;;;;;;;;;;;;7.55;66.50;99323.63;5031371;28;20015;-90
2022/11/22 05:28:50;;;;;;;;;;;;;;;7.57;66.01;99329.75;5031747;28;19917;-89
2022/11/22 05:31:17;;;;;;;;;;;;;;;7.39;65.54;99327.25;5020896;28;19933;-92
2022/11/22 05:33:43;;;;;;;;;;;;;;;7.22;65.60;99335.25;5035197;28;19925;-93
2022/11/22 05:36:09;;;;;;;;;;;;;;;6.98;66.28;99347.63;5011661;28;20390;-89
2022/11/22 05:38:36;;;;;;;;;;;;;;;6.90;66.48;99347.69;5027545;28;20005;-91
2022/11/22 05:41:02;;;;;;;;;;;;;;;6.78;67.18;99351.25;5027762;28;19921;-88
2022/11/22 05:43:28;;;;;;;;;;;;;;;6.84;67.25;99355.56;5014907;28;19924;-88
2022/11/22 05:45:53;;;;;;;;;;;;;;;6.91;67.40;99359.91;5032239;28;19928;-89
2022/11/22 05:48:18;;;;;;;;;;;;;;;7.01;67.84;99371.22;5031977;28;19936;-91
2022/11/22 05:50:44;;;;;;;;;;;;;;;7.10;67.59;99368.53;5029416;28;19971;-90
2022/11/22 05:53:09;;;;;;;;;;;;;;;7.29;67.33;99368.44;5031205;28;19917;-89
2022/11/22 05:55:34;;;;;;;;;;;;;;;7.38;66.41;99370.13;5029296;28;19970;-89
2022/11/22 05:58:00;;;;;;;;;;;;;;;7.45;66.80;99370.06;5030114;28;19917;-88
2022/11/22 06:00:25;;;;;;;;;;;;;;;7.40;67.02;99364.00;5028392;28;19925;-90
2022/11/22 06:02:54;;;;;;;;;;;;;;;7.52;66.84;99373.50;5028878;28;19925;-90
2022/11/22 06:05:19;;;;;;;;;;;;;;;7.53;67.26;99362.13;5027819;28;20314;-89
2022/11/22 06:07:45;;;;;;;;;;;;;;;7.79;66.90;99376.81;5030792;28;19918;-87
2022/11/22 06:10:10;;;;;;;;;;;;;;;7.81;66.40;99370.63;5028825;28;19960;-90
2022/11/22 06:12:35;;;;;;;;;;;;;;;7.88;67.13;99379.34;5031086;28;19928;-88
2022/11/22 06:15:02;;;;;;;;;;;;;;;8.03;66.81;99380.94;5030789;28;19925;-92
2022/11/22 06:17:27;;;;;;;;;;;;;;;8.34;65.67;99376.28;5029855;28;20063;-90
2022/11/22 06:19:52;;;;;;;;;;;;;;;8.41;66.42;99384.94;5028895;28;20023;-90
2022/11/22 06:22:17;;;;;;;;;;;;;;;8.59;65.82;99387.41;5030164;28;20010;-90
2022/11/22 06:24:43;;;;;;;;;;;;;;;8.69;64.71;99390.78;5035194;28;19943;-87
2022/11/22 06:27:08;;;;;;;;;;;;;;;8.65;64.28;99378.56;5026036;28;19917;-86
2022/11/22 06:29:33;;;;;;;;;;;;;;;8.66;63.69;99379.44;5031407;28;19917;-88
2022/11/22 06:31:59;;;;;;;;;;;;;;;8.60;63.26;99377.75;5030171;28;19928;-88
2022/11/22 06:34:24;;;;;;;;;;;;;;;8.62;63.11;99382.97;5030866;28;19917;-88
2022/11/22 06:36:49;;;;;;;;;;;;;;;8.74;63.08;99391.63;5030785;28;19971;-86
2022/11/22 06:39:15;;;;;;;;;;;;;;;8.87;62.69;99394.94;5030250;28;19925;-86
2022/11/22 06:41:40;;;;;;;;;;;;;;;9.03;62.39;99382.44;5026915;28;20012;-86
2022/11/22 06:44:06;;;;;;;;;;;;;;;9.16;62.04;99396.31;5028730;28;19921;-88
2022/11/22 06:46:31;;;;;;;;;;;;;;;9.41;61.01;99410.00;5030231;28;19925;-91
2022/11/22 06:48:57;;;;;;;;;;;;;;;9.44;59.10;99415.22;5030200;28;19921;-92
2022/11/22 06:51:27;;;;;;;;;;;;;;;9.69;59.34;99417.47;5030374;28;19924;-89
2022/11/22 06:53:56;;;;;;;;;;;;;;;9.82;58.12;99411.13;5030449;28;19974;-89
2022/11/22 06:56:25;;;;;;;;;;;;;;;10.14;58.50;99407.03;5023687;28;19921;-90
2022/11/22 06:58:52;;;;;;;;;;;;;;;10.37;57.17;99400.53;5031090;28;19928;-91
2022/11/22 07:01:21;;;;;;;;;;;;;;;10.72;57.02;99398.94;5030010;28;19936;-90
2022/11/22 07:03:47;;;;;;;;;;;;;;;10.86;56.47;99396.03;5045825;28;20383;-89
2022/11/22 07:06:13;;;;;;;;;;;;;;;11.13;56.95;99399.84;5032705;28;19961;-88
2022/11/22 07:08:40;;;;;;;;;;;;;;;11.25;56.20;99411.94;5033921;28;19969;-88
2022/11/22 07:11:07;;;;;;;;;;;;;;;11.38;55.58;99405.44;5034713;28;19917;-89
2022/11/22 07:13:32;;;;;;;;;;;;;;;11.52;53.95;99413.03;5034012;28;19933;-89
2022/11/22 07:15:58;;;;;;;;;;;;;;;11.49;53.51;99404.34;5034691;28;20068;-88
2022/11/22 07:18:24;;;;;;;;;;;;;;;11.29;54.49;99409.19;5035003;28;19924;-88
2022/11/22 07:20:49;;;;;;;;;;;;;;;11.15;54.29;99415.66;5034655;28;19921;-89
2022/11/22 07:23:15;;;;;;;;;;;;;;;11.28;54.57;99418.00;5034595;28;19921;-88
2022/11/22 07:25:46;;;;;;;;;;;;;;;11.41;53.92;99413.28;5034792;28;20018;-89
2022/11/22 07:28:12;;;;;;;;;;;;;;;11.37;53.38;99416.03;5034304;28;19920;-88
2022/11/22 07:30:38;;;;;;;;;;;;;;;11.34;53.72;99408.19;5034930;28;20020;-89
2022/11/22 07:33:03;;;;;;;;;;;;;;;11.39;52.83;99401.06;5034132;28;19964;-87
2022/11/22 07:35:29;;;;;;;;;;;;;;;11.42;53.62;99393.91;5033831;28;20404;-87
2022/11/22 07:37:54;;;;;;;;;;;;;;;11.68;52.73;99399.47;5033952;28;19921;-88
2022/11/22 07:40:19;;;;;;;;;;;;;;;11.97;53.32;99404.06;5034740;28;20379;-89
2022/11/22 07:42:45;;;;;;;;;;;;;;;12.08;52.04;99398.50;5028936;28;19922;-87
2022/11/22 07:45:10;;;;;;;;;;;;;;;11.78;52.18;99408.94;5031001;28;19917;-86
2022/11/22 07:47:35;;;;;;;;;;;;;;;11.96;52.52;99405.00;5033763;28;20353;-87
2022/11/22 07:50:01;;;;;;;;;;;;;;;12.00;50.79;99401.34;5033942;28;19967;-85
2022/11/22 07:52:26;;;;;;;;;;;;;;;12.31;53.73;99398.78;5033950;28;19940;-86
2022/11/22 07:54:51;;;;;;;;;;;;;;;12.68;52.12;99396.91;5034033;28;19921;-88
2022/11/22 07:57:16;;;;;;;;;;;;;;;12.87;50.98;99403.41;5033352;28;19921;-87
2022/11/22 07:59:42;;;;;;;;;;;;;;;12.86;48.82;99398.16;5033070;28;19917;-88
2022/11/22 08:02:09;;;;;;;;;;;;;;;12.59;52.27;99398.03;5024611;28;19924;-89
2022/11/22 08:04:35;;;;;;;;;;;;;;;13.21;50.84;99389.16;5033172;28;19944;-93
2022/11/22 08:07:00;;;;;;;;;;;;;;;13.37;50.13;99386.94;5045468;28;19917;-90
2022/11/22 08:09:25;;;;;;;;;;;;;;;13.60;49.29;99385.34;5032721;28;20399;-90
2022/11/22 08:11:51;;;;;;;;;;;;;;;13.51;47.69;99381.19;5031745;28;19939;-88
2022/11/22 08:14:16;;;;;;;;;;;;;;;13.49;48.28;99390.13;5033519;28;19917;-87
2022/11/22 08:16:41;;;;;;;;;;;;;;;13.58;47.04;99389.84;5032403;28;19925;-87
2022/11/22 08:19:07;;;;;;;;;;;;;;;13.41;46.28;99393.88;5033098;28;20326;-88
2022/11/22 08:21:32;;;;;;;;;;;;;;;13.55;47.61;99387.28;5032527;28;19956;-92
2022/11/22 08:23:57;;;;;;;;;;;;;;;13.37;45.72;99384.28;5032660;28;19957;-88
2022/11/22 08:26:23;;;;;;;;;;;;;;;13.12;46.37;99385.94;5033102;28;19923;-91
2022/11/22 08:28:48;;;;;;;;;;;;;;;13.45;46.96;99391.97;5033479;28;19913;-91
2022/11/22 08:31:15;;;;;;;;;;;;;;;13.24;45.60;99386.41;5032896;28;19968;-89
2022/11/22 08:33:40;;;;;;;;;;;;;;;13.31;45.43;99376.50;5032942;28;19952;-90
2022/11/22 08:36:06;;;;;;;;;;;;;;;13.49;45.21;99364.47;5032874;28;19963;-88
2022/11/22 08:38:32;;;;;;;;;;;;;;;13.61;45.89;99374.69;5011036;28;19921;-89
2022/11/22 08:40:57;;;;;;;;;;;;;;;13.41;44.89;99363.88;5017335;28;19925;-89
2022/11/22 08:43:23;;;;;;;;;;;;;;;13.71;45.35;99356.69;5032266;28;19975;-88
2022/11/22 08:45:52;;;;;;;;;;;;;;;13.79;46.04;99346.72;5032243;28;19965;-89
2022/11/22 08:48:17;;;;;;;;;;;;;;;13.93;47.24;99342.72;5031919;28;19917;-88
2022/11/22 08:50:48;;;;;;;;;;;;;;;14.21;44.71;99337.31;5031906;28;20283;-87
2022/11/22 08:53:13;;;;;;;;;;;;;;;13.97;44.79;99334.59;5031444;28;19922;-91
2022/11/22 08:55:39;;;;;;;;;;;;;;;13.89;44.63;99338.44;5030474;28;19917;-86
2022/11/22 08:58:04;;;;;;;;;;;;;;;14.15;43.29;99329.59;5031460;28;19921;-87
2022/11/22 09:00:29;;;;;;;;;;;;;;;14.25;44.40;99315.06;5031848;28;19921;-88
2022/11/22 09:02:55;;;;;;;;;;;;;;;14.05;43.60;99302.50;5032452;28;19929;-89
2022/11/22 09:05:20;;;;;;;;;;;;;;;13.76;44.10;99301.75;5030924;28;19924;-88
2022/11/22 09:07:45;;;;;;;;;;;;;;;13.76;44.72;99292.91;5045774;28;21601;-88
2022/11/22 09:10:11;;;;;;;;;;;;;;;13.57;45.47;99295.34;5035246;28;19931;-88
2022/11/22 09:12:36;;;;;;;;;;;;;;;13.43;45.49;99290.50;5052508;28;20007;-88
2022/11/22 09:15:01;;;;;;;;;;;;;;;13.60;45.49;99287.28;5052695;28;19917;-87
2022/11/22 09:17:27;;;;;;;;;;;;;;;13.52;46.07;99298.13;5052185;28;19916;-88
2022/11/22 09:19:52;;;;;;;;;;;;;;;13.69;47.25;99294.91;5034107;28;19960;-88
2022/11/22 09:22:17;;;;;;;;;;;;;;;13.61;47.42;99297.84;5031596;28;19936;-87
2022/11/22 09:24:42;;;;;;;;;;;;;;;13.84;47.44;99287.34;5047683;28;19917;-88
2022/11/22 09:27:08;;;;;;;;;;;;;;;13.54;47.10;99293.66;5031103;28;19947;-88
2022/11/22 09:29:33;;;;;;;;;;;;;;;13.83;47.16;99294.44;5031045;28;19917;-89
2022/11/22 09:31:58;;;;;;;;;;;;;;;13.57;46.76;99284.75;5031817;28;19917;-88
2022/11/22 09:34:24;;;;;;;;;;;;;;;13.50;47.02;99280.56;5032127;28;19921;-88
2022/11/22 09:36:49;;;;;;;;;;;;;;;13.66;48.13;99278.28;5031334;28;19921;-90
2022/11/22 09:39:14;;;;;;;;;;;;;;;13.77;48.16;99274.31;5032596;28;20008;-89
2022/11/22 09:41:48;;;;;;;;;;;;;;;13.68;48.53;99250.78;5029170;28;20406;-89
2022/11/22 09:44:29;;;;;;;;;;;;;;;13.89;47.29;99257.13;5030753;28;19921;-89
2022/11/22 09:47:24;;;;;;;;;;;;;;;13.82;48.50;99254.75;5030413;28;19928;-89
2022/11/22 09:50:11;;;;;;;;;;;;;;;13.96;48.13;99271.00;4975864;28;19938;-89
2022/11/22 09:52:55;;;;;;;;;;;;;;;14.17;47.13;99276.50;5030035;28;20454;-89
2022/11/22 09:55:24;;;;;;;;;;;;;;;14.00;47.67;99285.03;5029439;28;20386;-91
2022/11/22 09:57:55;;;;;;;;;;;;;;;14.14;47.26;99278.31;5027640;28;20455;-90
2022/11/22 10:00:26;;;;;;;;;;;;;;;14.15;47.17;99280.03;5044658;28;20286;-89
2022/11/22 10:02:59;;;;;;;;;;;;;;;14.31;45.76;99285.66;5027874;28;19917;-89
2022/11/22 10:05:26;;;;;;;;;;;;;;;14.18;47.48;99300.31;5029273;28;19924;-88
2022/11/22 10:08:30;;;;;;;;;;;;;;;14.24;46.29;99286.81;5028138;28;19925;-89
2022/11/22 10:10:57;;;;;;;;;;;;;;;14.17;46.49;99268.53;4979467;28;20314;-88
2022/11/22 10:13:37;;;;;;;;;;;;;;;14.12;47.10;99256.28;4984861;28;19922;-87
2022/11/22 10:16:11;;;;;;;;;;;;;;;14.01;48.10;99253.16;5009091;28;19983;-91
2022/11/22 10:18:42;;;;;;;;;;;;;;;13.96;47.55;99244.50;5028943;28;19921;-90
2022/11/22 10:21:12;;;;;;;;;;;;;;;13.75;48.40;99241.69;5029576;28;19944;-91
2022/11/22 10:23:38;;;;;;;;;;;;;;;13.95;47.38;99240.13;5028033;28;21094;-91
2022/11/22 10:26:22;;;;;;;;;;;;;;;13.63;47.65;99243.91;5029683;28;19944;-90
2022/11/22 10:28:59;;;;;;;;;;;;;;;13.63;49.02;99239.47;5026600;28;19928;-88
2022/11/22 10:31:27;;;;;;;;;;;;;;;13.91;48.38;99235.84;5029281;28;19925;-87
2022/11/22 10:33:58;;;;;;;;;;;;;;;14.07;48.87;99238.81;5027848;28;19925;-85
2022/11/22 10:36:50;;;;;;;;;;;;;;;14.15;48.55;99242.91;5029240;28;19921;-86
2022/11/22 10:39:22;;;;;;;;;;;;;;;14.09;48.10;99253.75;5014383;28;19917;-88
2022/11/22 10:41:50;;;;;;;;;;;;;;;13.95;47.38;99248.09;5043260;28;19928;-87
2022/11/22 10:44:34;;;;;;;;;;;;;;;13.83;48.37;99252.03;5027743;28;20020;-86
2022/11/22 10:47:18;;;;;;;;;;;;;;;14.30;47.87;99253.88;5027688;28;19925;-87
2022/11/22 10:49:49;;;;;;;;;;;;;;;14.25;46.67;99250.53;5030806;28;19913;-87
2022/11/22 10:52:32;;;;;;;;;;;;;;;14.48;47.18;99247.88;5030618;28;19927;-90
2022/11/22 10:55:08;;;;;;;;;;;;;;;14.67;47.21;99236.56;5028994;28;20356;-90
2022/11/22 10:57:36;;;;;;;;;;;;;;;14.38;47.35;99232.34;5030896;28;19917;-89
2022/11/22 11:00:16;;;;;;;;;;;;;;;14.59;46.22;99235.97;5030097;28;20008;-90
2022/11/22 11:02:50;;;;;;;;;;;;;;;14.67;45.52;99233.91;5031195;28;19928;-92
2022/11/22 11:05:19;;;;;;;;;;;;;;;14.63;46.18;99232.34;5030364;28;19963;-96
2022/11/22 11:07:50;;;;;;;;;;;;;;;14.63;45.55;99232.34;5025083;28;19944;-92
2022/11/22 11:10:18;;;;;;;;;;;;;;;14.44;45.65;99225.03;5028564;28;19975;-91
2022/11/22 11:12:57;;;;;;;;;;;;;;;14.38;45.89;99205.81;5030951;28;19924;-93
2022/11/22 11:15:35;;;;;;;;;;;;;;;14.39;46.05;99200.47;5045804;28;20438;-90
2022/11/22 11:18:01;;;;;;;;;;;;;;;14.19;46.81;99195.91;5028799;28;20477;-91
2022/11/22 11:20:30;;;;;;;;;;;;;;;14.03;46.41;99200.09;5045144;28;19921;-92
2022/11/22 11:22:55;;;;;;;;;;;;;;;13.86;46.86;99190.09;5040500;28;19936;-92
2022/11/22 11:25:43;;;;;;;;;;;;;;;13.81;46.61;99184.06;5023358;28;19921;-94
2022/11/22 11:28:17;;;;;;;;;;;;;;;14.05;47.71;99188.47;5027493;28;20009;-91
2022/11/22 11:31:02;;;;;;;;;;;;;;;14.05;46.48;99188.47;5010120;28;19956;-96
2022/11/22 11:33:29;;;;;;;;;;;;;;;14.09;47.19;99182.13;5008932;28;19926;-96
2022/11/22 11:36:04;;;;;;;;;;;;;;;14.01;46.89;99172.72;5015162;28;19929;-96
2022/11/22 11:38:51;;;;;;;;;;;;;;;14.06;48.71;99162.84;5012944;28;19921;-95
2022/11/22 11:41:19;;;;;;;;;;;;;;;13.99;47.90;99172.78;5012230;28;19927;-96
2022/11/22 11:43:45;;;;;;;;;;;;;;;14.09;47.45;99171.53;5024900;28;20009;-90
2022/11/22 11:46:33;;;;;;;;;;;;;;;14.21;47.23;99172.88;5009757;28;20028;-90
2022/11/22 11:49:15;;;;;;;;;;;;;;;14.27;48.36;99158.47;5020478;28;19953;-92
2022/11/22 11:51:54;;;;;;;;;;;;;;;14.46;48.22;99150.69;5028694;28;19948;-92
2022/11/22 11:54:25;;;;;;;;;;;;;;;14.78;47.30;99153.84;5031877;28;19921;-95
2022/11/22 11:56:51;;;;;;;;;;;;;;;14.86;47.67;99160.59;5031630;28;19921;-93
2022/11/22 11:59:21;;;;;;;;;;;;;;;14.56;46.91;99151.19;5047603;28;20439;-94
2022/11/22 12:02:02;;;;;;;;;;;;;;;14.36;47.50;99154.63;5031899;28;19929;-95
2022/11/22 12:04:29;;;;;;;;;;;;;;;14.28;47.68;99147.81;5032826;28;20396;-95
2022/11/22 12:06:58;;;;;;;;;;;;;;;14.33;47.90;99147.63;5031761;28;19929;-89
2022/11/22 12:09:32;;;;;;;;;;;;;;;14.42;48.24;99143.75;5030506;28;19924;-90
2022/11/22 12:12:02;;;;;;;;;;;;;;;14.60;48.39;99152.78;5031128;28;19921;-93
2022/11/22 12:14:28;;;;;;;;;;;;;;;14.32;48.60;99145.94;5031788;28;20448;-90
2022/11/22 12:16:56;;;;;;;;;;;;;;;14.30;48.66;99150.41;5031262;28;19925;-93
2022/11/22 12:19:22;;;;;;;;;;;;;;;14.33;49.39;99167.09;5032101;28;19925;-93
2022/11/22 12:21:53;;;;;;;;;;;;;;;14.31;49.02;99160.94;5032069;28;19917;-93
2022/11/22 12:24:22;;;;;;;;;;;;;;;14.32;49.68;99161.84;5047640;28;20092;-93
2022/11/22 12:26:47;;;;;;;;;;;;;;;14.35;49.31;99148.47;5027507;28;19921;-93
2022/11/22 12:29:14;;;;;;;;;;;;;;;14.56;48.87;99149.38;5031633;28;19921;-94
2022/11/22 12:31:48;;;;;;;;;;;;;;;14.53;49.42;99144.19;5030118;28;19990;-95
2022/11/22 12:34:29;;;;;;;;;;;;;;;14.39;48.91;99118.19;5042625;28;19921;-96
2022/11/22 12:37:11;;;;;;;;;;;;;;;14.28;49.97;99112.47;5048363;28;19925;-94
2022/11/22 12:39:36;;;;;;;;;;;;;;;14.41;50.52;99111.06;5032873;28;19917;-92
2022/11/22 12:42:02;;;;;;;;;;;;;;;14.35;49.10;99095.41;5048761;28;19944;-92
2022/11/22 12:44:31;;;;;;;;;;;;;;;14.56;49.39;99093.63;5032801;28;19975;-94
2022/11/22 12:47:04;;;;;;;;;;;;;;;14.88;48.92;99101.25;5032711;28;20016;-92
2022/11/22 12:49:31;;;;;;;;;;;;;;;14.74;48.63;99093.88;5032744;28;19975;-94
2022/11/22 12:52:05;;;;;;;;;;;;;;;14.81;49.03;99101.50;5043247;28;20399;-93
2022/11/22 12:54:34;;;;;;;;;;;;;;;15.07;48.07;99099.53;5012774;28;19918;-94
2022/11/22 12:57:03;;;;;;;;;;;;;;;15.21;48.68;99097.16;5014005;28;20023;-93
2022/11/22 12:59:37;;;;;;;;;;;;;;;15.01;49.54;99087.38;5031192;28;19921;-93
2022/11/22 13:02:38;;;;;;;;;;;;;;;15.01;48.84;99078.53;5030532;28;19925;-92
2022/11/22 13:05:08;;;;;;;;;;;;;;;14.82;50.21;99079.31;4990619;28;20052;-94
2022/11/22 13:07:34;;;;;;;;;;;;;;;14.66;49.58;99063.19;5024861;28;20008;-94